sensor_id;sensor_type;location;lat;lon;timestamp;temperature;humidity
80132;SHT30;69442;51.442;10.564;2024-01-25T00:01:40;7.36;78.80
80132;SHT30;69442;51.442;10.564;2024-01-25T00:04:06;7.39;78.79
80132;SHT30;69442;51.442;10.564;2024-01-25T00:06:31;7.36;78.87
80132;SHT30;69442;51.442;10.564;2024-01-25T00:08:56;7.32;79.12
80132;SHT30;69442;51.442;10.564;2024-01-25T00:11:22;7.33;78.15
80132;SHT30;69442;51.442;10.564;2024-01-25T00:13:47;7.35;78.57
80132;SHT30;69442;51.442;10.564;2024-01-25T00:16:12;7.30;78.65
80132;SHT30;69442;51.442;10.564;2024-01-25T00:18:38;7.33;78.17
80132;SHT30;69442;51.442;10.564;2024-01-25T00:21:03;7.29;78.93
80132;SHT30;69442;51.442;10.564;2024-01-25T00:23:29;7.29;79.05
80132;SHT30;69442;51.442;10.564;2024-01-25T00:25:54;7.30;79.49
80132;SHT30;69442;51.442;10.564;2024-01-25T00:28:24;7.27;78.62
80132;SHT30;69442;51.442;10.564;2024-01-25T00:30:49;7.27;78.07
80132;SHT30;69442;51.442;10.564;2024-01-25T00:33:14;7.29;79.43
80132;SHT30;69442;51.442;10.564;2024-01-25T00:35:40;7.29;78.54
80132;SHT30;69442;51.442;10.564;2024-01-25T00:38:05;7.27;78.44
80132;SHT30;69442;51.442;10.564;2024-01-25T00:40:31;7.29;78.38
80132;SHT30;69442;51.442;10.564;2024-01-25T00:42:57;7.29;78.89
80132;SHT30;69442;51.442;10.564;2024-01-25T00:45:23;7.26;79.18
80132;SHT30;69442;51.442;10.564;2024-01-25T00:47:49;7.22;78.41
80132;SHT30;69442;51.442;10.564;2024-01-25T00:50:16;7.25;78.33
80132;SHT30;69442;51.442;10.564;2024-01-25T00:52:49;7.26;78.64
80132;SHT30;69442;51.442;10.564;2024-01-25T00:55:15;7.22;78.03
80132;SHT30;69442;51.442;10.564;2024-01-25T00:57:41;7.18;78.06
80132;SHT30;69442;51.442;10.564;2024-01-25T01:00:07;7.18;78.38
80132;SHT30;69442;51.442;10.564;2024-01-25T01:02:36;7.19;79.52
80132;SHT30;69442;51.442;10.564;2024-01-25T01:05:04;7.19;79.43
80132;SHT30;69442;51.442;10.564;2024-01-25T01:07:30;7.19;79.37
80132;SHT30;69442;51.442;10.564;2024-01-25T01:09:55;7.22;79.46
80132;SHT30;69442;51.442;10.564;2024-01-25T01:12:21;7.16;79.50
80132;SHT30;69442;51.442;10.564;2024-01-25T01:14:46;7.20;80.47
80132;SHT30;69442;51.442;10.564;2024-01-25T01:17:11;7.18;80.23
80132;SHT30;69442;51.442;10.564;2024-01-25T01:19:37;7.11;79.97
80132;SHT30;69442;51.442;10.564;2024-01-25T01:22:02;7.15;80.56
80132;SHT30;69442;51.442;10.564;2024-01-25T01:24:28;7.16;81.57
80132;SHT30;69442;51.442;10.564;2024-01-25T01:26:53;7.20;81.29
80132;SHT30;69442;51.442;10.564;2024-01-25T01:29:19;7.18;80.91
80132;SHT30;69442;51.442;10.564;2024-01-25T01:31:44;7.18;80.92
80132;SHT30;69442;51.442;10.564;2024-01-25T01:34:09;7.15;80.60
80132;SHT30;69442;51.442;10.564;2024-01-25T01:36:37;7.14;80.72
80132;SHT30;69442;51.442;10.564;2024-01-25T01:39:02;7.12;80.31
80132;SHT30;69442;51.442;10.564;2024-01-25T01:41:28;7.11;80.07
80132;SHT30;69442;51.442;10.564;2024-01-25T01:43:54;7.09;79.59
80132;SHT30;69442;51.442;10.564;2024-01-25T01:46:37;7.08;79.55
80132;SHT30;69442;51.442;10.564;2024-01-25T01:49:06;7.07;79.33
80132;SHT30;69442;51.442;10.564;2024-01-25T01:51:33;7.07;80.10
80132;SHT30;69442;51.442;10.564;2024-01-25T01:54:00;7.04;79.69
80132;SHT30;69442;51.442;10.564;2024-01-25T01:56:27;6.99;79.54
80132;SHT30;69442;51.442;10.564;2024-01-25T01:58:58;6.98;79.74
80132;SHT30;69442;51.442;10.564;2024-01-25T02:01:25;7.01;80.20
80132;SHT30;69442;51.442;10.564;2024-01-25T02:03:50;6.97;80.19
80132;SHT30;69442;51.442;10.564;2024-01-25T02:06:16;6.95;79.97
80132;SHT30;69442;51.442;10.564;2024-01-25T02:08:41;7.01;81.09
80132;SHT30;69442;51.442;10.564;2024-01-25T02:11:07;6.94;80.20
80132;SHT30;69442;51.442;10.564;2024-01-25T02:13:33;6.97;80.76
80132;SHT30;69442;51.442;10.564;2024-01-25T02:16:00;6.92;80.43
80132;SHT30;69442;51.442;10.564;2024-01-25T02:18:25;6.95;80.48
80132;SHT30;69442;51.442;10.564;2024-01-25T02:20:51;6.91;79.49
80132;SHT30;69442;51.442;10.564;2024-01-25T02:23:16;6.90;79.49
80132;SHT30;69442;51.442;10.564;2024-01-25T02:25:42;6.88;79.34
80132;SHT30;69442;51.442;10.564;2024-01-25T02:28:07;6.88;79.74
80132;SHT30;69442;51.442;10.564;2024-01-25T02:30:32;6.85;79.81
80132;SHT30;69442;51.442;10.564;2024-01-25T02:32:58;6.84;79.81
80132;SHT30;69442;51.442;10.564;2024-01-25T02:35:23;6.85;79.93
80132;SHT30;69442;51.442;10.564;2024-01-25T02:37:49;6.90;80.66
80132;SHT30;69442;51.442;10.564;2024-01-25T02:40:16;6.85;80.23
80132;SHT30;69442;51.442;10.564;2024-01-25T02:42:41;6.84;79.81
80132;SHT30;69442;51.442;10.564;2024-01-25T02:45:07;6.81;79.39
80132;SHT30;69442;51.442;10.564;2024-01-25T02:47:32;6.81;78.94
80132;SHT30;69442;51.442;10.564;2024-01-25T02:49:58;6.79;79.26
80132;SHT30;69442;51.442;10.564;2024-01-25T02:52:23;6.81;79.10
80132;SHT30;69442;51.442;10.564;2024-01-25T02:54:48;6.84;79.75
80132;SHT30;69442;51.442;10.564;2024-01-25T02:57:14;6.84;79.63
80132;SHT30;69442;51.442;10.564;2024-01-25T02:59:39;6.84;79.76
80132;SHT30;69442;51.442;10.564;2024-01-25T03:02:05;6.88;80.49
80132;SHT30;69442;51.442;10.564;2024-01-25T03:04:30;6.83;79.11
80132;SHT30;69442;51.442;10.564;2024-01-25T03:06:55;6.85;78.59
80132;SHT30;69442;51.442;10.564;2024-01-25T03:09:21;6.85;79.12
80132;SHT30;69442;51.442;10.564;2024-01-25T03:11:49;6.85;79.18
80132;SHT30;69442;51.442;10.564;2024-01-25T03:14:14;6.84;78.67
80132;SHT30;69442;51.442;10.564;2024-01-25T03:16:39;6.85;79.36
80132;SHT30;69442;51.442;10.564;2024-01-25T03:19:05;6.85;79.04
80132;SHT30;69442;51.442;10.564;2024-01-25T03:21:30;6.87;78.54
80132;SHT30;69442;51.442;10.564;2024-01-25T03:23:55;6.85;78.20
80132;SHT30;69442;51.442;10.564;2024-01-25T03:26:21;6.90;79.79
80132;SHT30;69442;51.442;10.564;2024-01-25T03:28:46;6.90;79.20
80132;SHT30;69442;51.442;10.564;2024-01-25T03:31:12;6.90;78.73
80132;SHT30;69442;51.442;10.564;2024-01-25T03:33:37;6.88;78.57
80132;SHT30;69442;51.442;10.564;2024-01-25T03:36:03;6.92;78.95
80132;SHT30;69442;51.442;10.564;2024-01-25T03:38:29;6.92;79.23
80132;SHT30;69442;51.442;10.564;2024-01-25T03:40:54;6.94;79.04
80132;SHT30;69442;51.442;10.564;2024-01-25T03:43:22;6.90;78.38
80132;SHT30;69442;51.442;10.564;2024-01-25T03:45:48;6.91;79.06
80132;SHT30;69442;51.442;10.564;2024-01-25T03:48:14;6.91;78.70
80132;SHT30;69442;51.442;10.564;2024-01-25T03:50:40;6.91;78.92
80132;SHT30;69442;51.442;10.564;2024-01-25T03:53:05;6.90;78.81
80132;SHT30;69442;51.442;10.564;2024-01-25T03:55:31;6.87;78.28
80132;SHT30;69442;51.442;10.564;2024-01-25T03:57:57;6.91;78.56
80132;SHT30;69442;51.442;10.564;2024-01-25T04:00:22;6.90;77.35
80132;SHT30;69442;51.442;10.564;2024-01-25T04:02:48;6.88;77.60
80132;SHT30;69442;51.442;10.564;2024-01-25T04:05:13;6.87;77.71
80132;SHT30;69442;51.442;10.564;2024-01-25T04:07:40;6.87;78.76
80132;SHT30;69442;51.442;10.564;2024-01-25T04:10:06;6.88;78.64
80132;SHT30;69442;51.442;10.564;2024-01-25T04:12:32;6.84;77.96
80132;SHT30;69442;51.442;10.564;2024-01-25T04:14:58;6.91;80.35
80132;SHT30;69442;51.442;10.564;2024-01-25T04:17:23;6.88;78.91
80132;SHT30;69442;51.442;10.564;2024-01-25T04:19:49;6.84;77.49
80132;SHT30;69442;51.442;10.564;2024-01-25T04:22:14;6.81;78.11
80132;SHT30;69442;51.442;10.564;2024-01-25T04:24:39;6.81;78.02
80132;SHT30;69442;51.442;10.564;2024-01-25T04:27:05;6.83;78.34
80132;SHT30;69442;51.442;10.564;2024-01-25T04:29:30;6.83;79.10
80132;SHT30;69442;51.442;10.564;2024-01-25T04:31:56;6.80;77.68
80132;SHT30;69442;51.442;10.564;2024-01-25T04:34:21;6.76;77.44
80132;SHT30;69442;51.442;10.564;2024-01-25T04:36:47;6.80;77.77
80132;SHT30;69442;51.442;10.564;2024-01-25T04:39:12;6.79;77.64
80132;SHT30;69442;51.442;10.564;2024-01-25T04:41:37;6.81;79.13
80132;SHT30;69442;51.442;10.564;2024-01-25T04:44:03;6.73;77.62
80132;SHT30;69442;51.442;10.564;2024-01-25T04:46:29;6.74;77.46
80132;SHT30;69442;51.442;10.564;2024-01-25T04:49:00;6.77;78.39
80132;SHT30;69442;51.442;10.564;2024-01-25T04:51:25;6.73;78.16
80132;SHT30;69442;51.442;10.564;2024-01-25T04:53:50;6.72;77.70
80132;SHT30;69442;51.442;10.564;2024-01-25T04:56:16;6.77;77.83
80132;SHT30;69442;51.442;10.564;2024-01-25T04:58:41;6.73;77.51
80132;SHT30;69442;51.442;10.564;2024-01-25T05:01:06;6.67;77.69
80132;SHT30;69442;51.442;10.564;2024-01-25T05:03:32;6.73;78.71
80132;SHT30;69442;51.442;10.564;2024-01-25T05:05:58;6.72;78.29
80132;SHT30;69442;51.442;10.564;2024-01-25T05:08:23;6.70;78.37
80132;SHT30;69442;51.442;10.564;2024-01-25T05:10:48;6.74;79.29
80132;SHT30;69442;51.442;10.564;2024-01-25T05:13:14;6.73;79.72
80132;SHT30;69442;51.442;10.564;2024-01-25T05:15:39;6.70;77.77
80132;SHT30;69442;51.442;10.564;2024-01-25T05:18:06;6.70;78.29
80132;SHT30;69442;51.442;10.564;2024-01-25T05:20:32;6.77;80.30
80132;SHT30;69442;51.442;10.564;2024-01-25T05:23:01;6.73;78.78
80132;SHT30;69442;51.442;10.564;2024-01-25T05:25:28;6.73;78.40
80132;SHT30;69442;51.442;10.564;2024-01-25T05:27:54;6.73;79.05
80132;SHT30;69442;51.442;10.564;2024-01-25T05:30:20;6.74;78.19
80132;SHT30;69442;51.442;10.564;2024-01-25T05:32:45;6.77;78.84
80132;SHT30;69442;51.442;10.564;2024-01-25T05:35:11;6.76;78.37
80132;SHT30;69442;51.442;10.564;2024-01-25T05:37:36;6.79;78.81
80132;SHT30;69442;51.442;10.564;2024-01-25T05:40:02;6.74;78.60
80132;SHT30;69442;51.442;10.564;2024-01-25T05:42:27;6.76;77.54
80132;SHT30;69442;51.442;10.564;2024-01-25T05:44:53;6.77;78.75
80132;SHT30;69442;51.442;10.564;2024-01-25T05:47:18;6.81;79.63
80132;SHT30;69442;51.442;10.564;2024-01-25T05:49:44;6.77;79.23
80132;SHT30;69442;51.442;10.564;2024-01-25T05:52:09;6.79;78.52
80132;SHT30;69442;51.442;10.564;2024-01-25T05:54:35;6.79;78.49
80132;SHT30;69442;51.442;10.564;2024-01-25T05:57:00;6.79;79.09
80132;SHT30;69442;51.442;10.564;2024-01-25T05:59:25;6.79;78.16
80132;SHT30;69442;51.442;10.564;2024-01-25T06:01:51;6.77;77.93
80132;SHT30;69442;51.442;10.564;2024-01-25T06:04:16;6.83;79.40
80132;SHT30;69442;51.442;10.564;2024-01-25T06:06:41;6.79;78.18
80132;SHT30;69442;51.442;10.564;2024-01-25T06:09:07;6.80;78.06
80132;SHT30;69442;51.442;10.564;2024-01-25T06:11:32;6.79;77.77
80132;SHT30;69442;51.442;10.564;2024-01-25T06:14:00;6.76;77.62
80132;SHT30;69442;51.442;10.564;2024-01-25T06:16:25;6.77;77.98
80132;SHT30;69442;51.442;10.564;2024-01-25T06:18:51;6.77;78.57
80132;SHT30;69442;51.442;10.564;2024-01-25T06:21:16;6.77;78.81
80132;SHT30;69442;51.442;10.564;2024-01-25T06:23:41;6.77;78.13
80132;SHT30;69442;51.442;10.564;2024-01-25T06:26:07;6.80;78.16
80132;SHT30;69442;51.442;10.564;2024-01-25T06:28:32;6.79;79.19
80132;SHT30;69442;51.442;10.564;2024-01-25T06:30:57;6.74;77.18
80132;SHT30;69442;51.442;10.564;2024-01-25T06:33:23;6.73;77.22
80132;SHT30;69442;51.442;10.564;2024-01-25T06:35:48;6.77;78.82
80132;SHT30;69442;51.442;10.564;2024-01-25T06:38:13;6.79;78.39
80132;SHT30;69442;51.442;10.564;2024-01-25T06:40:39;6.76;77.62
80132;SHT30;69442;51.442;10.564;2024-01-25T06:43:04;6.73;77.00
80132;SHT30;69442;51.442;10.564;2024-01-25T06:45:29;6.72;77.10
80132;SHT30;69442;51.442;10.564;2024-01-25T06:47:55;6.74;78.72
80132;SHT30;69442;51.442;10.564;2024-01-25T06:50:20;6.72;77.47
80132;SHT30;69442;51.442;10.564;2024-01-25T06:52:45;6.72;76.97
80132;SHT30;69442;51.442;10.564;2024-01-25T06:55:11;6.74;77.81
80132;SHT30;69442;51.442;10.564;2024-01-25T06:57:38;6.73;77.05
80132;SHT30;69442;51.442;10.564;2024-01-25T07:00:04;6.73;76.99
80132;SHT30;69442;51.442;10.564;2024-01-25T07:02:30;6.69;76.82
80132;SHT30;69442;51.442;10.564;2024-01-25T07:04:55;6.70;77.41
80132;SHT30;69442;51.442;10.564;2024-01-25T07:07:21;6.67;77.02
80132;SHT30;69442;51.442;10.564;2024-01-25T07:09:46;6.69;76.90
80132;SHT30;69442;51.442;10.564;2024-01-25T07:12:12;6.69;77.50
80132;SHT30;69442;51.442;10.564;2024-01-25T07:14:37;6.69;76.91
80132;SHT30;69442;51.442;10.564;2024-01-25T07:17:02;6.72;77.07
80132;SHT30;69442;51.442;10.564;2024-01-25T07:19:28;6.72;77.54
80132;SHT30;69442;51.442;10.564;2024-01-25T07:21:54;6.73;76.97
80132;SHT30;69442;51.442;10.564;2024-01-25T07:24:19;6.72;77.63
80132;SHT30;69442;51.442;10.564;2024-01-25T07:26:45;6.70;77.61
80132;SHT30;69442;51.442;10.564;2024-01-25T07:29:10;6.73;77.98
80132;SHT30;69442;51.442;10.564;2024-01-25T07:31:35;6.76;78.32
80132;SHT30;69442;51.442;10.564;2024-01-25T07:34:01;6.72;77.48
80132;SHT30;69442;51.442;10.564;2024-01-25T07:36:26;6.73;78.55
80132;SHT30;69442;51.442;10.564;2024-01-25T07:38:51;6.76;77.91
80132;SHT30;69442;51.442;10.564;2024-01-25T07:41:17;6.77;78.02
80132;SHT30;69442;51.442;10.564;2024-01-25T07:43:42;6.81;77.94
80132;SHT30;69442;51.442;10.564;2024-01-25T07:46:08;6.79;77.82
80132;SHT30;69442;51.442;10.564;2024-01-25T07:48:33;6.80;79.16
80132;SHT30;69442;51.442;10.564;2024-01-25T07:50:59;6.76;77.59
80132;SHT30;69442;51.442;10.564;2024-01-25T07:53:24;6.76;77.23
80132;SHT30;69442;51.442;10.564;2024-01-25T07:55:49;6.74;77.97
80132;SHT30;69442;51.442;10.564;2024-01-25T07:58:15;6.74;77.24
80132;SHT30;69442;51.442;10.564;2024-01-25T08:00:41;6.76;78.30
80132;SHT30;69442;51.442;10.564;2024-01-25T08:03:07;6.81;79.79
80132;SHT30;69442;51.442;10.564;2024-01-25T08:05:32;6.79;78.08
80132;SHT30;69442;51.442;10.564;2024-01-25T08:07:58;6.84;79.68
80132;SHT30;69442;51.442;10.564;2024-01-25T08:10:23;6.79;78.36
80132;SHT30;69442;51.442;10.564;2024-01-25T08:12:49;6.83;78.01
80132;SHT30;69442;51.442;10.564;2024-01-25T08:15:14;6.76;77.18
80132;SHT30;69442;51.442;10.564;2024-01-25T08:17:39;6.76;77.32
80132;SHT30;69442;51.442;10.564;2024-01-25T08:20:05;6.80;78.86
80132;SHT30;69442;51.442;10.564;2024-01-25T08:22:34;6.79;78.50
80132;SHT30;69442;51.442;10.564;2024-01-25T08:25:00;6.81;77.86
80132;SHT30;69442;51.442;10.564;2024-01-25T08:27:25;6.85;77.89
80132;SHT30;69442;51.442;10.564;2024-01-25T08:29:50;6.88;79.80
80132;SHT30;69442;51.442;10.564;2024-01-25T08:32:16;6.83;77.41
80132;SHT30;69442;51.442;10.564;2024-01-25T08:34:41;6.83;77.84
80132;SHT30;69442;51.442;10.564;2024-01-25T08:37:07;6.85;77.67
80132;SHT30;69442;51.442;10.564;2024-01-25T08:39:32;6.84;77.42
80132;SHT30;69442;51.442;10.564;2024-01-25T08:41:57;6.87;78.80
80132;SHT30;69442;51.442;10.564;2024-01-25T08:44:27;6.91;78.66
80132;SHT30;69442;51.442;10.564;2024-01-25T08:46:52;6.91;77.43
80132;SHT30;69442;51.442;10.564;2024-01-25T08:49:18;6.91;78.18
80132;SHT30;69442;51.442;10.564;2024-01-25T08:51:43;6.91;77.56
80132;SHT30;69442;51.442;10.564;2024-01-25T08:54:09;6.91;76.78
80132;SHT30;69442;51.442;10.564;2024-01-25T08:56:34;6.91;77.14
80132;SHT30;69442;51.442;10.564;2024-01-25T08:58:59;6.95;78.47
80132;SHT30;69442;51.442;10.564;2024-01-25T09:01:25;7.01;79.38
80132;SHT30;69442;51.442;10.564;2024-01-25T09:03:50;6.94;77.11
80132;SHT30;69442;51.442;10.564;2024-01-25T09:06:16;6.95;77.83
80132;SHT30;69442;51.442;10.564;2024-01-25T09:08:41;6.99;78.82
80132;SHT30;69442;51.442;10.564;2024-01-25T09:11:07;7.02;80.33
80132;SHT30;69442;51.442;10.564;2024-01-25T09:13:32;7.04;79.13
80132;SHT30;69442;51.442;10.564;2024-01-25T09:15:57;7.04;79.09
80132;SHT30;69442;51.442;10.564;2024-01-25T09:18:23;7.04;77.78
80132;SHT30;69442;51.442;10.564;2024-01-25T09:20:48;7.04;77.24
80132;SHT30;69442;51.442;10.564;2024-01-25T09:23:16;7.07;77.22
80132;SHT30;69442;51.442;10.564;2024-01-25T09:25:43;7.14;77.85
80132;SHT30;69442;51.442;10.564;2024-01-25T09:28:08;7.08;76.57
80132;SHT30;69442;51.442;10.564;2024-01-25T09:30:33;7.15;78.85
80132;SHT30;69442;51.442;10.564;2024-01-25T09:32:59;7.18;79.07
80132;SHT30;69442;51.442;10.564;2024-01-25T09:35:24;7.18;78.13
80132;SHT30;69442;51.442;10.564;2024-01-25T09:37:50;7.20;79.51
80132;SHT30;69442;51.442;10.564;2024-01-25T09:40:20;7.18;77.88
80132;SHT30;69442;51.442;10.564;2024-01-25T09:42:47;7.20;77.54
80132;SHT30;69442;51.442;10.564;2024-01-25T09:45:16;7.26;77.94
80132;SHT30;69442;51.442;10.564;2024-01-25T09:47:46;7.27;77.07
80132;SHT30;69442;51.442;10.564;2024-01-25T09:50:12;7.29;77.66
80132;SHT30;69442;51.442;10.564;2024-01-25T09:52:38;7.36;79.80
80132;SHT30;69442;51.442;10.564;2024-01-25T09:55:07;7.32;77.04
80132;SHT30;69442;51.442;10.564;2024-01-25T09:57:35;7.36;77.77
80132;SHT30;69442;51.442;10.564;2024-01-25T10:00:03;7.37;78.57
80132;SHT30;69442;51.442;10.564;2024-01-25T10:02:28;7.36;77.11
80132;SHT30;69442;51.442;10.564;2024-01-25T10:04:54;7.40;78.21
80132;SHT30;69442;51.442;10.564;2024-01-25T10:07:42;7.43;79.42
80132;SHT30;69442;51.442;10.564;2024-01-25T10:10:08;7.46;78.37
80132;SHT30;69442;51.442;10.564;2024-01-25T10:12:34;7.49;79.32
80132;SHT30;69442;51.442;10.564;2024-01-25T10:15:00;7.50;77.51
80132;SHT30;69442;51.442;10.564;2024-01-25T10:17:25;7.52;77.74
80132;SHT30;69442;51.442;10.564;2024-01-25T10:19:51;7.53;75.86
80132;SHT30;69442;51.442;10.564;2024-01-25T10:22:17;7.56;77.40
80132;SHT30;69442;51.442;10.564;2024-01-25T10:24:43;7.60;78.27
80132;SHT30;69442;51.442;10.564;2024-01-25T10:27:08;7.60;76.88
80132;SHT30;69442;51.442;10.564;2024-01-25T10:29:37;7.64;78.35
80132;SHT30;69442;51.442;10.564;2024-01-25T10:32:03;7.66;79.12
80132;SHT30;69442;51.442;10.564;2024-01-25T10:34:30;7.66;77.35
80132;SHT30;69442;51.442;10.564;2024-01-25T10:36:55;7.73;76.60
80132;SHT30;69442;51.442;10.564;2024-01-25T10:39:22;7.71;76.26
80132;SHT30;69442;51.442;10.564;2024-01-25T10:41:47;7.77;80.27
80132;SHT30;69442;51.442;10.564;2024-01-25T10:44:16;7.77;78.09
80132;SHT30;69442;51.442;10.564;2024-01-25T10:46:46;7.80;77.13
80132;SHT30;69442;51.442;10.564;2024-01-25T10:49:12;7.78;76.20
80132;SHT30;69442;51.442;10.564;2024-01-25T10:51:39;7.80;76.99
80132;SHT30;69442;51.442;10.564;2024-01-25T10:54:07;7.84;76.95
80132;SHT30;69442;51.442;10.564;2024-01-25T10:56:34;7.78;75.61
80132;SHT30;69442;51.442;10.564;2024-01-25T10:59:00;7.78;75.23
80132;SHT30;69442;51.442;10.564;2024-01-25T11:01:27;7.80;76.98
80132;SHT30;69442;51.442;10.564;2024-01-25T11:03:52;7.82;77.66
80132;SHT30;69442;51.442;10.564;2024-01-25T11:06:20;7.84;80.25
80132;SHT30;69442;51.442;10.564;2024-01-25T11:08:46;7.87;77.24
80132;SHT30;69442;51.442;10.564;2024-01-25T11:11:15;7.88;78.16
80132;SHT30;69442;51.442;10.564;2024-01-25T11:13:42;7.88;76.10
80132;SHT30;69442;51.442;10.564;2024-01-25T11:16:24;7.89;77.59
80132;SHT30;69442;51.442;10.564;2024-01-25T11:18:54;7.89;75.99
80132;SHT30;69442;51.442;10.564;2024-01-25T11:21:39;7.89;75.88
80132;SHT30;69442;51.442;10.564;2024-01-25T11:24:05;7.94;80.17
80132;SHT30;69442;51.442;10.564;2024-01-25T11:26:34;7.92;77.11
80132;SHT30;69442;51.442;10.564;2024-01-25T11:28:59;7.91;75.86
80132;SHT30;69442;51.442;10.564;2024-01-25T11:31:26;7.94;75.59
80132;SHT30;69442;51.442;10.564;2024-01-25T11:33:56;7.97;79.19
80132;SHT30;69442;51.442;10.564;2024-01-25T11:36:22;7.97;76.20
80132;SHT30;69442;51.442;10.564;2024-01-25T11:38:48;7.99;78.87
80132;SHT30;69442;51.442;10.564;2024-01-25T11:41:13;7.97;76.75
80132;SHT30;69442;51.442;10.564;2024-01-25T11:43:40;7.99;78.04
80132;SHT30;69442;51.442;10.564;2024-01-25T11:46:05;8.01;76.24
80132;SHT30;69442;51.442;10.564;2024-01-25T11:48:31;8.01;76.55
80132;SHT30;69442;51.442;10.564;2024-01-25T11:50:58;8.06;78.73
80132;SHT30;69442;51.442;10.564;2024-01-25T11:53:23;8.08;79.42
80132;SHT30;69442;51.442;10.564;2024-01-25T11:55:49;8.09;81.09
80132;SHT30;69442;51.442;10.564;2024-01-25T11:58:15;8.12;80.57
80132;SHT30;69442;51.442;10.564;2024-01-25T12:00:41;8.06;78.35
80132;SHT30;69442;51.442;10.564;2024-01-25T12:03:07;8.06;77.33
80132;SHT30;69442;51.442;10.564;2024-01-25T12:05:33;8.09;80.33
80132;SHT30;69442;51.442;10.564;2024-01-25T12:07:59;8.05;78.20
80132;SHT30;69442;51.442;10.564;2024-01-25T12:10:24;8.02;75.96
80132;SHT30;69442;51.442;10.564;2024-01-25T12:12:51;7.98;74.14
80132;SHT30;69442;51.442;10.564;2024-01-25T12:15:16;7.99;78.49
80132;SHT30;69442;51.442;10.564;2024-01-25T12:17:41;8.01;75.88
80132;SHT30;69442;51.442;10.564;2024-01-25T12:20:07;8.03;79.11
80132;SHT30;69442;51.442;10.564;2024-01-25T12:22:36;8.01;75.66
80132;SHT30;69442;51.442;10.564;2024-01-25T12:25:02;7.95;73.12
80132;SHT30;69442;51.442;10.564;2024-01-25T12:27:29;8.02;76.10
80132;SHT30;69442;51.442;10.564;2024-01-25T12:29:56;7.98;74.40
80132;SHT30;69442;51.442;10.564;2024-01-25T12:32:21;8.02;74.40
80132;SHT30;69442;51.442;10.564;2024-01-25T12:34:57;8.02;75.97
80132;SHT30;69442;51.442;10.564;2024-01-25T12:37:23;8.05;77.00
80132;SHT30;69442;51.442;10.564;2024-01-25T12:39:51;8.03;74.95
80132;SHT30;69442;51.442;10.564;2024-01-25T12:42:17;8.05;74.30
80132;SHT30;69442;51.442;10.564;2024-01-25T12:44:43;8.06;74.72
80132;SHT30;69442;51.442;10.564;2024-01-25T12:47:09;8.03;73.89
80132;SHT30;69442;51.442;10.564;2024-01-25T12:49:35;8.08;75.20
80132;SHT30;69442;51.442;10.564;2024-01-25T12:52:00;8.10;75.76
80132;SHT30;69442;51.442;10.564;2024-01-25T12:54:26;8.08;73.46
80132;SHT30;69442;51.442;10.564;2024-01-25T12:56:51;8.09;75.17
80132;SHT30;69442;51.442;10.564;2024-01-25T12:59:17;8.13;76.14
80132;SHT30;69442;51.442;10.564;2024-01-25T13:01:42;8.13;76.57
80132;SHT30;69442;51.442;10.564;2024-01-25T13:04:08;8.16;75.04
80132;SHT30;69442;51.442;10.564;2024-01-25T13:06:33;8.21;77.56
80132;SHT30;69442;51.442;10.564;2024-01-25T13:08:59;8.19;75.61
80132;SHT30;69442;51.442;10.564;2024-01-25T13:11:24;8.19;75.61
80132;SHT30;69442;51.442;10.564;2024-01-25T13:13:50;8.22;74.80
80132;SHT30;69442;51.442;10.564;2024-01-25T13:16:16;8.23;73.97
80132;SHT30;69442;51.442;10.564;2024-01-25T13:18:42;8.25;73.63
80132;SHT30;69442;51.442;10.564;2024-01-25T13:21:07;8.28;76.91
80132;SHT30;69442;51.442;10.564;2024-01-25T13:23:32;8.30;75.86
80132;SHT30;69442;51.442;10.564;2024-01-25T13:25:58;8.28;75.16
80132;SHT30;69442;51.442;10.564;2024-01-25T13:28:23;8.32;74.98
80132;SHT30;69442;51.442;10.564;2024-01-25T13:30:48;8.33;75.59
80132;SHT30;69442;51.442;10.564;2024-01-25T13:33:14;8.36;74.58
80132;SHT30;69442;51.442;10.564;2024-01-25T13:35:39;8.33;73.16
80132;SHT30;69442;51.442;10.564;2024-01-25T13:38:05;8.36;75.56
80132;SHT30;69442;51.442;10.564;2024-01-25T13:40:30;8.37;75.64
80132;SHT30;69442;51.442;10.564;2024-01-25T13:42:55;8.40;77.14
80132;SHT30;69442;51.442;10.564;2024-01-25T13:45:21;8.39;76.40
80132;SHT30;69442;51.442;10.564;2024-01-25T13:47:46;8.39;75.39
80132;SHT30;69442;51.442;10.564;2024-01-25T13:50:12;8.39;75.22
80132;SHT30;69442;51.442;10.564;2024-01-25T13:52:37;8.39;76.71
80132;SHT30;69442;51.442;10.564;2024-01-25T13:55:03;8.39;75.89
80132;SHT30;69442;51.442;10.564;2024-01-25T13:57:28;8.39;75.77
80132;SHT30;69442;51.442;10.564;2024-01-25T13:59:54;8.43;79.34
80132;SHT30;69442;51.442;10.564;2024-01-25T14:02:19;8.37;75.91
80132;SHT30;69442;51.442;10.564;2024-01-25T14:04:44;8.40;77.26
80132;SHT30;69442;51.442;10.564;2024-01-25T14:07:10;8.46;79.96
80132;SHT30;69442;51.442;10.564;2024-01-25T14:09:35;8.46;79.29
80132;SHT30;69442;51.442;10.564;2024-01-25T14:12:03;8.44;77.05
80132;SHT30;69442;51.442;10.564;2024-01-25T14:14:28;8.40;74.72
80132;SHT30;69442;51.442;10.564;2024-01-25T14:16:54;8.40;75.32
80132;SHT30;69442;51.442;10.564;2024-01-25T14:19:19;8.43;79.02
80132;SHT30;69442;51.442;10.564;2024-01-25T14:21:46;8.37;75.09
80132;SHT30;69442;51.442;10.564;2024-01-25T14:24:12;8.37;76.64
80132;SHT30;69442;51.442;10.564;2024-01-25T14:26:37;8.33;73.56
80132;SHT30;69442;51.442;10.564;2024-01-25T14:29:03;8.34;75.91
80132;SHT30;69442;51.442;10.564;2024-01-25T14:31:28;8.36;78.95
80132;SHT30;69442;51.442;10.564;2024-01-25T14:33:53;8.32;75.48
80132;SHT30;69442;51.442;10.564;2024-01-25T14:36:19;8.29;74.71
80132;SHT30;69442;51.442;10.564;2024-01-25T14:38:45;8.29;76.04
80132;SHT30;69442;51.442;10.564;2024-01-25T14:41:10;8.29;77.84
80132;SHT30;69442;51.442;10.564;2024-01-25T14:43:37;8.26;77.81
80132;SHT30;69442;51.442;10.564;2024-01-25T14:46:04;8.25;79.06
80132;SHT30;69442;51.442;10.564;2024-01-25T14:48:30;8.16;74.24
80132;SHT30;69442;51.442;10.564;2024-01-25T14:50:55;8.13;73.69
80132;SHT30;69442;51.442;10.564;2024-01-25T14:53:21;8.16;76.74
80132;SHT30;69442;51.442;10.564;2024-01-25T14:55:46;8.08;73.45
80132;SHT30;69442;51.442;10.564;2024-01-25T14:58:11;8.09;74.62
80132;SHT30;69442;51.442;10.564;2024-01-25T15:00:39;8.08;75.68
80132;SHT30;69442;51.442;10.564;2024-01-25T15:03:05;8.02;73.68
80132;SHT30;69442;51.442;10.564;2024-01-25T15:05:31;8.01;75.36
80132;SHT30;69442;51.442;10.564;2024-01-25T15:07:56;8.01;74.90
80132;SHT30;69442;51.442;10.564;2024-01-25T15:10:21;8.02;77.90
80132;SHT30;69442;51.442;10.564;2024-01-25T15:12:47;7.97;74.69
80132;SHT30;69442;51.442;10.564;2024-01-25T15:15:13;7.94;73.59
80132;SHT30;69442;51.442;10.564;2024-01-25T15:17:39;7.87;72.41
80132;SHT30;69442;51.442;10.564;2024-01-25T15:20:04;7.88;74.89
80132;SHT30;69442;51.442;10.564;2024-01-25T15:22:30;7.87;74.82